Time;durP1;ratioP1;P1;durP2;ratioP2;P2;SDS_P1;SDS_P2;PMS_P1;PMS_P2;Temp;Humidity;BMP_temperature;BMP_pressure;BME280_temperature;BME280_humidity;BME280_pressure;Samples;Min_cycle;Max_cycle;Signal;HPM_P1;HPM_P2
2020/12/07 00:02:22;;;;;;;228.13;58.43;;;3.40;99.90;;;;;;5051816;28;20616;-80
2020/12/07 00:04:48;;;;;;;196.80;57.73;;;3.20;99.90;;;;;;5053202;28;20495;-79
2020/12/07 00:07:16;;;;;;;171.33;58.17;;;3.30;99.90;;;;;;5035741;28;20167;-79
2020/12/07 00:09:45;;;;;;;148.03;57.43;;;3.40;99.90;;;;;;5053011;28;20169;-80
2020/12/07 00:12:10;;;;;;;156.23;56.50;;;3.50;99.90;;;;;;5052964;28;20168;-79
2020/12/07 00:14:36;;;;;;;171.27;57.43;;;3.70;99.90;;;;;;5035147;28;20685;-80
2020/12/07 00:17:01;;;;;;;164.60;58.23;;;3.70;99.90;;;;;;5052937;28;20248;-79
2020/12/07 00:19:27;;;;;;;154.30;56.00;;;3.80;99.90;;;;;;5053427;28;20169;-80
2020/12/07 00:21:52;;;;;;;143.90;55.67;;;3.90;99.90;;;;;;5034854;28;20224;-80
2020/12/07 00:24:18;;;;;;;118.47;56.50;;;3.90;99.90;;;;;;5035037;28;20279;-79
2020/12/07 00:26:44;;;;;;;174.07;56.53;;;3.90;99.90;;;;;;5053470;28;20173;-80
2020/12/07 00:29:10;;;;;;;185.67;55.97;;;3.90;99.90;;;;;;5052873;28;20585;-80
2020/12/07 00:31:36;;;;;;;127.23;53.60;;;3.70;99.90;;;;;;5052826;28;20160;-80
2020/12/07 00:34:01;;;;;;;172.30;56.17;;;3.80;99.90;;;;;;5054398;28;20173;-80
2020/12/07 00:36:27;;;;;;;179.80;57.23;;;3.90;99.90;;;;;;5035658;28;20230;-80
2020/12/07 00:38:54;;;;;;;138.07;56.50;;;3.80;99.90;;;;;;5036459;28;20169;-80
2020/12/07 00:41:20;;;;;;;136.93;57.03;;;3.90;99.90;;;;;;5036311;28;20184;-81
2020/12/07 00:43:46;;;;;;;169.73;54.53;;;4.00;99.90;;;;;;5036343;28;20201;-80
2020/12/07 00:46:12;;;;;;;167.57;57.50;;;3.90;99.90;;;;;;5036227;28;20252;-80
2020/12/07 00:48:37;;;;;;;158.80;56.10;;;3.90;99.90;;;;;;5036245;28;20175;-81
2020/12/07 00:51:03;;;;;;;154.83;53.27;;;3.80;99.90;;;;;;5036066;28;20165;-81
2020/12/07 00:53:32;;;;;;;140.63;51.17;;;3.60;99.90;;;;;;5036125;28;20169;-80
2020/12/07 00:55:58;;;;;;;204.30;55.13;;;3.70;99.90;;;;;;5018406;28;20161;-81
2020/12/07 00:58:24;;;;;;;153.53;52.90;;;3.80;99.90;;;;;;5018211;28;20356;-79
2020/12/07 01:00:49;;;;;;;134.17;53.43;;;3.90;99.90;;;;;;5036051;28;20169;-79
2020/12/07 01:03:15;;;;;;;119.33;51.67;;;4.00;99.90;;;;;;5037067;28;20204;-80
2020/12/07 01:05:40;;;;;;;138.63;52.30;;;3.90;99.90;;;;;;5056381;28;20171;-80
2020/12/07 01:08:06;;;;;;;143.83;50.60;;;4.00;99.90;;;;;;5055842;28;20529;-80
2020/12/07 01:10:31;;;;;;;116.57;51.03;;;3.90;99.90;;;;;;5055680;28;20161;-80
2020/12/07 01:12:57;;;;;;;199.20;51.13;;;4.00;99.90;;;;;;5055692;28;20169;-80
2020/12/07 01:15:23;;;;;;;161.33;52.13;;;3.90;99.90;;;;;;5037863;28;20172;-80
2020/12/07 01:17:48;;;;;;;152.13;52.53;;;4.00;99.90;;;;;;5037763;28;20172;-79
2020/12/07 01:20:14;;;;;;;153.23;54.17;;;4.10;99.90;;;;;;5037669;28;20203;-80
2020/12/07 01:22:39;;;;;;;137.80;53.23;;;4.10;99.90;;;;;;5037208;28;20686;-80
2020/12/07 01:25:08;;;;;;;123.23;50.97;;;3.80;99.90;;;;;;5037633;28;20179;-80
2020/12/07 01:27:34;;;;;;;144.07;48.40;;;3.60;99.90;;;;;;5055452;28;20251;-80
2020/12/07 01:29:59;;;;;;;146.37;50.23;;;3.70;99.90;;;;;;5055392;28;20265;-80
2020/12/07 01:32:25;;;;;;;103.77;49.57;;;3.60;99.90;;;;;;5055367;28;20560;-80
2020/12/07 01:34:51;;;;;;;155.40;54.13;;;3.60;99.90;;;;;;5053296;28;20219;-80
2020/12/07 01:37:16;;;;;;;156.80;48.67;;;3.30;99.90;;;;;;5036581;28;20168;-80
2020/12/07 01:39:42;;;;;;;142.87;48.27;;;3.00;99.90;;;;;;5037389;28;20530;-80
2020/12/07 01:42:08;;;;;;;195.03;52.87;;;3.30;99.90;;;;;;5037221;28;20176;-79
2020/12/07 01:44:33;;;;;;;160.47;53.30;;;3.40;99.90;;;;;;5036812;28;20157;-79
2020/12/07 01:47:23;;;;;;;171.13;52.90;;;3.40;99.90;;;;;;5055587;28;20168;-80
2020/12/07 01:49:50;;;;;;;180.27;51.27;;;3.40;99.90;;;;;;5054884;28;20171;-80
2020/12/07 01:52:20;;;;;;;135.63;51.97;;;3.20;99.90;;;;;;5054968;28;20168;-80
2020/12/07 01:54:47;;;;;;;155.67;52.87;;;3.10;99.90;;;;;;5054874;28;20240;-80
2020/12/07 01:57:13;;;;;;;143.90;53.17;;;3.40;99.90;;;;;;5052745;28;20203;-80
2020/12/07 01:59:38;;;;;;;130.43;53.83;;;3.40;99.90;;;;;;5034745;28;20173;-80
2020/12/07 02:02:04;;;;;;;136.37;56.20;;;3.50;99.90;;;;;;5034850;28;20170;-80
2020/12/07 02:04:30;;;;;;;123.40;54.57;;;3.40;99.90;;;;;;5034642;28;20611;-80
2020/12/07 02:06:56;;;;;;;140.60;55.80;;;3.40;99.90;;;;;;5034738;28;20528;-80
2020/12/07 02:09:48;;;;;;;165.87;56.53;;;3.40;99.90;;;;;;5016837;28;20169;-80
2020/12/07 02:12:13;;;;;;;124.20;53.33;;;3.60;99.90;;;;;;5013550;28;20177;-80
2020/12/07 02:14:39;;;;;;;144.30;56.00;;;3.70;99.90;;;;;;5034371;28;20184;-80
2020/12/07 02:17:05;;;;;;;169.20;55.50;;;3.50;99.90;;;;;;5016807;28;20264;-80
2020/12/07 02:19:30;;;;;;;142.37;52.37;;;3.30;99.90;;;;;;5034454;28;20647;-80
2020/12/07 02:21:56;;;;;;;192.93;53.60;;;3.10;99.90;;;;;;5029134;28;20574;-80
2020/12/07 02:24:22;;;;;;;118.03;51.83;;;3.10;99.90;;;;;;5052994;28;20196;-80
2020/12/07 02:26:47;;;;;;;145.10;51.07;;;3.00;99.90;;;;;;5054145;28;20168;-80
2020/12/07 02:29:13;;;;;;;117.53;48.63;;;3.10;99.90;;;;;;5053698;28;20195;-80
2020/12/07 02:31:38;;;;;;;142.33;49.57;;;3.10;99.90;;;;;;5053953;28;20165;-80
2020/12/07 02:34:04;;;;;;;139.83;48.83;;;3.00;99.90;;;;;;5054107;28;20174;-80
2020/12/07 02:36:36;;;;;;;113.00;47.63;;;3.00;99.90;;;;;;5054158;28;20200;-80
2020/12/07 02:39:01;;;;;;;99.10;46.53;;;3.10;99.90;;;;;;5054487;28;20169;-80
2020/12/07 02:41:27;;;;;;;132.23;47.50;;;3.00;99.90;;;;;;5053962;28;20178;-80
2020/12/07 02:43:53;;;;;;;136.90;48.27;;;3.50;99.90;;;;;;5053871;28;20196;-80
2020/12/07 02:46:21;;;;;;;114.33;48.37;;;3.50;99.90;;;;;;5035891;28;20160;-80
2020/12/07 02:48:46;;;;;;;111.53;49.60;;;3.30;99.90;;;;;;5053804;28;20161;-79
2020/12/07 02:51:12;;;;;;;113.30;47.80;;;3.20;99.90;;;;;;5054104;28;20214;-80
2020/12/07 02:53:38;;;;;;;113.37;48.00;;;3.20;99.90;;;;;;5035861;28;20164;-80
2020/12/07 02:56:04;;;;;;;111.50;47.50;;;3.20;99.90;;;;;;5053364;28;20206;-80
2020/12/07 02:58:29;;;;;;;127.57;47.23;;;3.00;99.90;;;;;;5053468;28;20259;-80
2020/12/07 03:00:55;;;;;;;107.80;46.77;;;2.90;99.90;;;;;;5053527;28;20674;-80
2020/12/07 03:03:21;;;;;;;105.13;46.60;;;3.00;99.90;;;;;;5053569;28;20196;-80
2020/12/07 03:05:46;;;;;;;124.70;47.00;;;3.10;99.90;;;;;;5053606;28;20211;-80
2020/12/07 03:08:12;;;;;;;107.60;46.10;;;3.10;99.90;;;;;;5035637;28;20649;-80
2020/12/07 03:10:40;;;;;;;111.07;44.17;;;3.10;99.90;;;;;;5035710;28;20608;-80
2020/12/07 03:13:08;;;;;;;104.63;44.07;;;2.80;99.90;;;;;;5053935;28;20196;-80
2020/12/07 03:15:34;;;;;;;97.00;44.17;;;2.70;99.90;;;;;;5053467;28;20165;-80
2020/12/07 03:18:00;;;;;;;107.87;45.47;;;2.80;99.90;;;;;;5053443;28;20219;-80
2020/12/07 03:20:31;;;;;;;96.30;42.80;;;3.00;99.90;;;;;;5035303;28;20615;-79
2020/12/07 03:22:57;;;;;;;99.83;43.03;;;2.90;99.90;;;;;;5035501;28;20231;-80
2020/12/07 03:25:22;;;;;;;112.40;40.23;;;2.70;99.90;;;;;;5053348;28;20192;-80
2020/12/07 03:27:48;;;;;;;107.93;40.90;;;2.80;99.90;;;;;;5035207;28;20168;-80
2020/12/07 03:30:15;;;;;;;93.13;41.70;;;2.80;99.90;;;;;;5053206;28;20164;-80
2020/12/07 03:32:40;;;;;;;101.70;42.93;;;2.60;99.90;;;;;;5035397;28;20207;-80
2020/12/07 03:35:06;;;;;;;109.03;43.50;;;2.60;99.90;;;;;;5053665;28;20196;-80
2020/12/07 03:37:32;;;;;;;100.80;42.37;;;2.50;99.90;;;;;;5053358;28;20172;-80
2020/12/07 03:40:00;;;;;;;96.03;43.40;;;2.60;99.90;;;;;;5053258;28;20156;-80
2020/12/07 03:42:26;;;;;;;101.17;45.83;;;2.90;99.90;;;;;;5053310;28;20578;-79
2020/12/07 03:44:54;;;;;;;109.13;46.80;;;3.00;99.90;;;;;;5035075;28;20291;-80
2020/12/07 03:47:20;;;;;;;146.53;49.47;;;3.20;99.90;;;;;;5053212;28;20659;-80
2020/12/07 03:49:48;;;;;;;114.03;48.33;;;3.40;99.90;;;;;;5053260;28;20254;-80
2020/12/07 03:52:17;;;;;;;115.27;48.23;;;3.20;99.90;;;;;;5053732;28;20161;-80
2020/12/07 03:54:42;;;;;;;154.17;51.50;;;3.30;99.90;;;;;;5035450;28;20169;-80
2020/12/07 03:57:08;;;;;;;145.47;47.70;;;3.30;99.90;;;;;;5035182;28;20178;-80
2020/12/07 03:59:34;;;;;;;134.07;48.10;;;3.00;99.90;;;;;;5053816;28;20252;-80
2020/12/07 04:02:00;;;;;;;168.20;48.90;;;3.00;99.90;;;;;;5053311;28;20255;-80
2020/12/07 04:04:33;;;;;;;122.57;46.33;;;3.00;99.90;;;;;;5051770;28;20216;-79
2020/12/07 04:06:58;;;;;;;140.77;50.40;;;2.90;99.90;;;;;;5055705;28;20152;-80
2020/12/07 04:09:24;;;;;;;108.10;48.83;;;2.90;99.90;;;;;;5039167;28;20529;-80
2020/12/07 04:11:49;;;;;;;158.90;49.40;;;3.10;99.90;;;;;;5056942;28;20160;-80
2020/12/07 04:14:15;;;;;;;149.63;49.33;;;3.00;99.90;;;;;;5056976;28;20230;-80
2020/12/07 04:16:40;;;;;;;131.33;46.57;;;3.10;99.90;;;;;;5056913;28;20662;-80
2020/12/07 04:19:06;;;;;;;134.47;49.27;;;3.30;99.90;;;;;;5056769;28;20243;-80
2020/12/07 04:21:32;;;;;;;154.20;49.70;;;3.40;99.90;;;;;;5056842;28;20231;-80
2020/12/07 04:23:57;;;;;;;127.77;48.03;;;3.70;99.90;;;;;;5038783;28;20228;-80
2020/12/07 04:26:23;;;;;;;136.77;46.73;;;3.70;99.90;;;;;;5038882;28;20161;-80
2020/12/07 04:28:49;;;;;;;142.80;50.57;;;3.60;99.90;;;;;;5038390;28;20173;-80
2020/12/07 04:31:15;;;;;;;144.40;46.57;;;3.80;99.90;;;;;;5056248;28;20165;-80
2020/12/07 04:33:41;;;;;;;116.27;48.47;;;3.50;99.90;;;;;;5038730;28;20612;-80
2020/12/07 04:36:06;;;;;;;103.63;46.47;;;3.40;99.90;;;;;;5038775;28;20173;-80
2020/12/07 04:38:32;;;;;;;108.37;45.67;;;3.10;99.90;;;;;;5056681;28;20180;-80
2020/12/07 04:40:58;;;;;;;108.47;44.60;;;3.20;99.90;;;;;;5056536;28;20647;-81
2020/12/07 04:43:28;;;;;;;111.17;45.77;;;3.30;99.90;;;;;;5056327;28;20222;-81
2020/12/07 04:45:54;;;;;;;111.73;45.40;;;3.30;99.90;;;;;;5056244;28;20172;-80
2020/12/07 04:48:21;;;;;;;97.23;43.83;;;3.10;99.90;;;;;;5038489;28;20168;-80
2020/12/07 04:50:49;;;;;;;122.63;44.20;;;3.10;99.90;;;;;;5038374;28;20172;-80
2020/12/07 04:53:17;;;;;;;107.50;45.27;;;3.00;99.90;;;;;;5056145;28;20165;-80
2020/12/07 04:55:42;;;;;;;112.83;45.40;;;2.90;99.90;;;;;;5056105;28;20161;-80
2020/12/07 04:58:08;;;;;;;118.83;47.10;;;3.10;99.90;;;;;;5055317;28;20506;-80
2020/12/07 05:00:35;;;;;;;110.60;47.97;;;3.20;99.90;;;;;;5055746;28;20168;-80
2020/12/07 05:03:01;;;;;;;97.90;45.50;;;3.30;99.90;;;;;;5037980;28;20199;-80
2020/12/07 05:05:26;;;;;;;101.23;45.70;;;3.30;99.90;;;;;;5038050;28;20251;-80
2020/12/07 05:07:55;;;;;;;111.77;43.67;;;3.20;99.90;;;;;;5055905;28;20169;-80
2020/12/07 05:10:30;;;;;;;94.60;42.00;;;3.10;99.90;;;;;;5055855;28;20161;-80
2020/12/07 05:13:10;;;;;;;82.83;40.40;;;2.90;99.90;;;;;;5038258;28;20183;-80
2020/12/07 05:15:39;;;;;;;100.03;45.03;;;2.80;99.90;;;;;;5037846;28;20271;-80
2020/12/07 05:18:05;;;;;;;93.07;41.00;;;3.00;99.90;;;;;;5054988;28;20185;-80
2020/12/07 05:20:31;;;;;;;118.70;43.40;;;3.00;99.90;;;;;;5037549;28;20208;-80
2020/12/07 05:22:56;;;;;;;110.87;40.97;;;3.10;99.90;;;;;;5055543;28;20195;-80
2020/12/07 05:25:23;;;;;;;101.07;42.00;;;3.00;99.90;;;;;;5055603;28;20222;-80
2020/12/07 05:27:50;;;;;;;98.33;42.23;;;2.90;99.90;;;;;;5055150;28;20659;-80
2020/12/07 05:30:27;;;;;;;111.67;43.53;;;2.70;99.90;;;;;;5055105;28;20692;-80
2020/12/07 05:32:53;;;;;;;114.63;44.57;;;2.80;99.90;;;;;;5055466;28;20145;-80
2020/12/07 05:35:19;;;;;;;108.90;41.90;;;2.90;99.90;;;;;;5055371;28;20169;-80
2020/12/07 05:37:44;;;;;;;111.10;47.40;;;2.60;99.90;;;;;;5037437;28;20420;-80
2020/12/07 05:40:12;;;;;;;118.97;48.17;;;2.70;99.90;;;;;;5055257;28;20176;-80
2020/12/07 05:42:41;;;;;;;99.33;44.73;;;2.60;99.90;;;;;;5037271;28;20204;-80
2020/12/07 05:45:10;;;;;;;105.23;44.83;;;2.60;99.90;;;;;;5055097;28;20219;-80
2020/12/07 05:47:38;;;;;;;111.30;45.27;;;2.60;99.90;;;;;;5055091;28;20171;-79
2020/12/07 05:50:06;;;;;;;119.97;45.17;;;2.40;99.90;;;;;;5037241;28;20174;-80
2020/12/07 05:52:46;;;;;;;115.40;49.67;;;2.50;99.90;;;;;;5054955;28;20173;-80
2020/12/07 05:55:14;;;;;;;114.27;46.03;;;2.60;99.90;;;;;;5054970;28;20620;-79
2020/12/07 05:58:04;;;;;;;123.17;46.57;;;2.60;99.90;;;;;;5054273;28;20168;-80
2020/12/07 06:00:32;;;;;;;115.90;45.23;;;2.60;99.90;;;;;;5039689;28;20227;-80
2020/12/07 06:02:59;;;;;;;143.27;54.83;;;2.60;99.90;;;;;;5054504;28;20439;-80
2020/12/07 06:05:25;;;;;;;128.90;51.93;;;2.50;99.90;;;;;;5054828;28;20270;-80
2020/12/07 06:07:54;;;;;;;117.80;48.03;;;2.70;99.90;;;;;;5055368;28;20243;-80
2020/12/07 06:10:24;;;;;;;134.27;47.93;;;2.60;99.90;;;;;;5054681;28;20161;-80
2020/12/07 06:12:53;;;;;;;138.10;48.40;;;2.50;99.90;;;;;;5054651;28;20624;-79
2020/12/07 06:15:19;;;;;;;119.10;48.60;;;2.50;99.90;;;;;;5036481;28;20239;-79
2020/12/07 06:17:52;;;;;;;138.10;51.07;;;2.60;99.90;;;;;;5036574;28;20179;-79
2020/12/07 06:20:31;;;;;;;154.40;48.33;;;2.70;99.90;;;;;;5036515;28;20180;-80
2020/12/07 06:22:59;;;;;;;135.10;46.30;;;2.70;99.90;;;;;;5054419;28;20181;-80
2020/12/07 06:25:35;;;;;;;177.37;48.33;;;2.50;99.90;;;;;;5036486;28;20246;-79
2020/12/07 06:28:03;;;;;;;147.10;59.55;;;2.60;99.90;;;;;;5053086;28;20443;-80
2020/12/07 06:30:36;;;;;;;128.60;51.27;;;2.60;99.90;;;;;;5053147;28;20228;-79
2020/12/07 06:33:09;;;;;;;115.67;47.37;;;2.70;99.90;;;;;;5054278;28;20149;-80
2020/12/07 06:35:45;;;;;;;128.13;48.37;;;2.60;99.90;;;;;;5054680;28;20157;-79
2020/12/07 06:38:12;;;;;;;156.53;49.77;;;2.60;99.90;;;;;;5054180;28;20145;-79
2020/12/07 06:40:40;;;;;;;154.77;48.80;;;2.60;99.90;;;;;;5036136;28;20169;-79
2020/12/07 06:43:26;;;;;;;152.23;49.17;;;2.80;99.90;;;;;;5054552;28;20246;-79
2020/12/07 06:45:52;;;;;;;159.47;49.73;;;2.70;99.90;;;;;;5036116;28;20160;-79
2020/12/07 06:48:22;;;;;;;132.03;48.37;;;2.60;99.90;;;;;;5054491;28;20169;-79
2020/12/07 06:50:48;;;;;;;133.60;48.07;;;2.30;99.90;;;;;;5054491;28;20156;-79
2020/12/07 06:55:56;;;;;;;153.13;52.63;;;2.10;99.90;;;;;;5054181;28;20165;-80
2020/12/07 06:58:36;;;;;;;134.00;49.10;;;2.40;99.90;;;;;;5053533;28;20199;-79
2020/12/07 07:01:28;;;;;;;134.87;50.07;;;2.30;99.90;;;;;;5054369;28;20168;-80
2020/12/07 07:03:56;;;;;;;136.03;51.60;;;2.40;99.90;;;;;;5032025;28;20232;-80
2020/12/07 07:06:23;;;;;;;125.00;48.30;;;2.30;99.90;;;;;;5053632;28;20589;-79
2020/12/07 07:08:50;;;;;;;129.33;50.73;;;2.30;99.90;;;;;;5054242;28;20549;-79
2020/12/07 07:11:16;;;;;;;146.70;62.00;;;2.40;99.90;;;;;;5052603;28;20495;-79
2020/12/07 07:13:50;;;;;;;143.97;55.90;;;2.80;99.90;;;;;;5054068;28;20192;-80
2020/12/07 07:16:18;;;;;;;133.87;54.27;;;2.90;99.90;;;;;;5053531;28;20168;-80
2020/12/07 07:18:44;;;;;;;141.97;59.27;;;2.90;99.90;;;;;;5053480;28;20231;-79
2020/12/07 07:21:10;;;;;;;138.40;55.60;;;2.90;99.90;;;;;;5035327;28;20224;-79
2020/12/07 07:23:41;;;;;;;134.70;55.33;;;2.60;99.90;;;;;;5035605;28;20219;-79
2020/12/07 07:26:24;;;;;;;129.73;53.40;;;2.50;99.90;;;;;;5035619;28;20218;-79
2020/12/07 07:28:51;;;;;;;123.03;48.83;;;2.70;99.90;;;;;;5052889;28;20156;-79
2020/12/07 07:31:21;;;;;;;123.90;51.17;;;2.70;99.90;;;;;;5053300;28;20422;-79
2020/12/07 07:33:47;;;;;;;115.93;51.13;;;2.90;99.90;;;;;;5053383;28;20753;-79
2020/12/07 07:36:25;;;;;;;113.20;50.90;;;2.70;99.90;;;;;;5035436;28;20201;-80
2020/12/07 07:38:58;;;;;;;120.53;51.40;;;2.80;99.90;;;;;;5035359;28;20168;-80
2020/12/07 07:41:25;;;;;;;126.07;56.00;;;2.90;99.90;;;;;;5054237;28;20249;-80
2020/12/07 07:43:52;;;;;;;119.23;54.77;;;2.80;99.90;;;;;;5057354;28;20282;-79
2020/12/07 07:46:19;;;;;;;143.33;52.73;;;2.90;99.90;;;;;;5057300;28;20549;-79
2020/12/07 08:17:57;;;;;;;114.20;51.33;;;2.50;99.90;;;;;;5057136;28;20156;-78
2020/12/07 08:20:26;;;;;;;124.13;55.00;;;2.50;99.90;;;;;;5038627;28;20183;-78
2020/12/07 08:22:59;;;;;;;125.57;56.07;;;2.80;99.90;;;;;;5038762;28;20193;-79
2020/12/07 08:25:50;;;;;;;140.83;54.50;;;2.90;99.90;;;;;;5038676;28;20626;-78
2020/12/07 08:28:16;;;;;;;119.43;52.03;;;3.20;99.90;;;;;;5038269;28;20153;-79
2020/12/07 08:31:01;;;;;;;119.00;52.83;;;3.20;99.90;;;;;;5055967;28;20361;-79
2020/12/07 08:33:28;;;;;;;122.47;53.27;;;3.10;99.90;;;;;;5056462;28;20165;-79
2020/12/07 08:35:55;;;;;;;124.47;53.40;;;3.20;99.90;;;;;;5039648;28;20509;-78
2020/12/07 08:38:33;;;;;;;117.00;51.47;;;3.20;99.90;;;;;;5056457;28;20217;-79
2020/12/07 08:41:23;;;;;;;125.03;52.50;;;3.40;99.90;;;;;;5056401;28;20520;-79
2020/12/07 08:43:51;;;;;;;105.30;48.63;;;3.40;99.90;;;;;;5055684;28;20230;-79
2020/12/07 08:46:19;;;;;;;119.20;51.77;;;3.30;99.90;;;;;;5056203;28;20176;-79
2020/12/07 08:48:45;;;;;;;133.13;62.70;;;3.20;99.90;;;;;;5056218;28;20681;-78
2020/12/07 08:51:11;;;;;;;119.73;53.87;;;3.20;99.90;;;;;;5056188;28;20168;-79
2020/12/07 08:53:38;;;;;;;123.07;55.77;;;3.20;99.90;;;;;;5054995;28;20169;-80
2020/12/07 08:56:05;;;;;;;117.60;50.43;;;3.10;99.90;;;;;;5056585;28;20179;-78
2020/12/07 08:58:31;;;;;;;117.23;53.53;;;3.10;99.90;;;;;;5055958;28;20535;-79
2020/12/07 09:01:06;;;;;;;113.40;49.63;;;3.20;99.90;;;;;;5055643;28;20177;-80
2020/12/07 09:03:32;;;;;;;108.30;49.03;;;3.10;99.90;;;;;;5055815;28;20275;-79
2020/12/07 09:06:01;;;;;;;116.87;50.77;;;3.10;99.90;;;;;;5037822;28;20161;-79
2020/12/07 09:08:26;;;;;;;113.33;49.33;;;3.20;99.90;;;;;;5056393;28;20229;-79
2020/12/07 09:10:52;;;;;;;115.97;50.80;;;3.30;99.90;;;;;;5055835;28;20165;-78
2020/12/07 09:13:18;;;;;;;129.17;58.83;;;3.40;99.90;;;;;;5037947;28;20887;-79
2020/12/07 09:15:43;;;;;;;119.23;54.17;;;3.50;99.90;;;;;;5055408;28;20207;-79
2020/12/07 09:18:09;;;;;;;124.13;53.00;;;3.60;99.90;;;;;;5056238;28;20227;-79
2020/12/07 09:20:35;;;;;;;120.50;51.70;;;3.70;99.90;;;;;;5037945;28;20590;-79
2020/12/07 09:23:00;;;;;;;126.93;54.57;;;3.70;99.90;;;;;;5037852;28;20219;-78
2020/12/07 09:25:26;;;;;;;120.40;51.93;;;3.70;99.90;;;;;;5038033;28;20164;-79
2020/12/07 09:27:52;;;;;;;115.70;47.70;;;3.50;99.90;;;;;;5054999;28;20200;-79
2020/12/07 09:30:17;;;;;;;110.03;49.13;;;3.30;99.90;;;;;;5055483;28;20169;-79
2020/12/07 09:32:43;;;;;;;119.23;47.67;;;3.40;99.90;;;;;;5037473;28;20272;-78
2020/12/07 09:35:09;;;;;;;109.33;45.63;;;3.30;99.90;;;;;;5055066;28;20169;-79
2020/12/07 09:37:36;;;;;;;121.57;57.28;;;3.20;99.90;;;;;;5055048;28;20428;-79
2020/12/07 09:40:04;;;;;;;100.60;50.10;;;3.20;99.90;;;;;;5037414;28;20160;-79
2020/12/07 09:42:31;;;;;;;115.10;49.00;;;3.30;99.90;;;;;;5055179;28;20169;-78
2020/12/07 09:44:57;;;;;;;121.25;57.53;;;3.40;99.90;;;;;;5036816;28;20775;-79
2020/12/07 09:47:22;;;;;;;121.73;55.63;;;3.40;99.90;;;;;;5055679;28;20161;-79
2020/12/07 09:49:48;;;;;;;121.93;52.77;;;3.50;99.90;;;;;;5055143;28;20161;-79
2020/12/07 09:52:14;;;;;;;119.20;50.47;;;3.30;99.90;;;;;;5055041;28;20627;-79
2020/12/07 09:54:39;;;;;;;111.87;50.23;;;3.10;99.90;;;;;;5055098;28;20199;-78
2020/12/07 09:57:06;;;;;;;110.43;50.67;;;3.00;99.90;;;;;;5054906;28;20164;-79
2020/12/07 09:59:33;;;;;;;115.40;49.83;;;3.00;99.90;;;;;;5054371;28;20570;-79
2020/12/07 10:02:00;;;;;;;102.13;48.30;;;3.00;99.90;;;;;;5054664;28;20620;-79
2020/12/07 10:04:26;;;;;;;106.40;50.20;;;3.10;99.90;;;;;;5055006;28;20220;-79
2020/12/07 10:06:52;;;;;;;109.20;52.37;;;3.20;99.90;;;;;;5054752;28;20698;-79
2020/12/07 10:09:17;;;;;;;110.07;51.03;;;3.00;99.90;;;;;;5054706;28;20508;-79
2020/12/07 10:11:43;;;;;;;100.07;50.77;;;3.00;99.90;;;;;;5036580;28;20175;-80
2020/12/07 10:14:09;;;;;;;105.00;48.80;;;3.10;99.90;;;;;;5036739;28;20620;-79
2020/12/07 10:16:35;;;;;;;104.57;49.43;;;3.40;99.90;;;;;;5054624;28;20173;-79
2020/12/07 10:19:00;;;;;;;99.60;48.50;;;3.50;99.90;;;;;;5054507;28;20170;-79
2020/12/07 10:21:27;;;;;;;101.10;50.63;;;3.30;99.90;;;;;;5054283;28;20311;-78
2020/12/07 10:23:53;;;;;;;94.83;47.20;;;3.60;99.90;;;;;;5054757;28;20250;-79
2020/12/07 10:26:28;;;;;;;95.13;48.80;;;3.60;99.90;;;;;;5054357;28;20161;-79
2020/12/07 10:28:54;;;;;;;94.87;46.33;;;3.80;99.90;;;;;;5053925;28;20164;-78
2020/12/07 10:31:20;;;;;;;88.20;47.07;;;3.70;99.90;;;;;;5053759;28;20653;-78
2020/12/07 10:33:47;;;;;;;87.80;46.43;;;3.40;99.90;;;;;;5054145;28;20161;-78
2020/12/07 10:36:13;;;;;;;92.30;47.37;;;3.70;99.90;;;;;;5054664;28;20171;-78
2020/12/07 10:38:39;;;;;;;108.73;51.33;;;4.10;99.90;;;;;;5054191;28;20173;-78
2020/12/07 10:41:05;;;;;;;90.77;47.60;;;4.20;99.90;;;;;;5054095;28;20165;-78
2020/12/07 10:43:31;;;;;;;90.93;47.57;;;3.90;99.90;;;;;;5054005;28;20284;-79
2020/12/07 10:45:57;;;;;;;87.37;47.37;;;3.50;99.90;;;;;;5054041;28;20236;-78
2020/12/07 10:48:23;;;;;;;88.40;47.73;;;3.50;99.90;;;;;;5052662;28;20566;-78
2020/12/07 10:50:48;;;;;;;96.47;50.13;;;3.40;99.90;;;;;;5053989;28;20157;-78
2020/12/07 10:53:14;;;;;;;97.50;48.07;;;3.70;99.90;;;;;;5053881;28;20496;-78
2020/12/07 10:55:43;;;;;;;93.67;48.83;;;3.60;99.90;;;;;;5052571;28;20601;-78
2020/12/07 10:58:09;;;;;;;87.47;47.50;;;3.60;99.90;;;;;;5035562;28;20814;-78
2020/12/07 11:00:37;;;;;;;100.13;56.70;;;3.50;99.90;;;;;;5053080;28;20416;-79
2020/12/07 11:03:03;;;;;;;90.83;48.60;;;3.70;99.90;;;;;;5054179;28;20195;-78
2020/12/07 11:05:29;;;;;;;86.23;47.97;;;3.90;99.90;;;;;;5035562;28;20255;-78
2020/12/07 11:07:55;;;;;;;93.73;48.33;;;4.10;99.90;;;;;;5053615;28;20247;-78
2020/12/07 11:10:21;;;;;;;90.20;46.83;;;4.20;99.90;;;;;;5053568;28;20202;-78
2020/12/07 11:12:53;;;;;;;91.47;47.67;;;4.10;99.90;;;;;;5053228;28;20177;-78
2020/12/07 11:15:19;;;;;;;89.07;48.33;;;4.20;99.90;;;;;;5053938;28;20145;-79
2020/12/07 11:17:45;;;;;;;86.73;47.67;;;4.50;99.90;;;;;;5034891;28;20168;-78
2020/12/07 11:20:10;;;;;;;99.50;57.50;;;4.50;99.90;;;;;;5034795;28;20477;-78
2020/12/07 11:22:38;;;;;;;92.17;49.83;;;4.30;99.90;;;;;;5035314;28;20235;-78
2020/12/07 11:25:04;;;;;;;91.50;48.37;;;4.20;99.90;;;;;;5035751;28;20215;-78
2020/12/07 11:27:30;;;;;;;89.27;48.70;;;4.00;99.90;;;;;;5033582;28;20219;-78
2020/12/07 11:29:55;;;;;;;83.60;47.07;;;3.80;99.90;;;;;;5029284;28;20174;-79
2020/12/07 11:32:21;;;;;;;85.10;45.30;;;4.00;99.90;;;;;;5015930;28;20169;-78
2020/12/07 11:34:46;;;;;;;80.87;42.97;;;3.90;99.90;;;;;;5016220;28;20587;-79
2020/12/07 11:37:12;;;;;;;83.83;42.67;;;4.00;99.90;;;;;;5033296;28;20191;-79
2020/12/07 11:44:34;;;;;;;86.53;46.97;;;3.90;99.90;;;;;;5033076;28;20197;-79
2020/12/07 11:47:02;;;;;;;94.70;51.35;;;3.60;99.90;;;;;;5032427;28;20491;-79
2020/12/07 11:49:28;;;;;;;91.83;46.87;;;3.60;99.90;;;;;;5033199;28;20208;-78
2020/12/07 11:51:54;;;;;;;84.23;45.30;;;3.30;99.90;;;;;;5033158;28;20165;-79
2020/12/07 11:54:22;;;;;;;83.53;46.23;;;3.40;99.90;;;;;;5033217;28;20694;-80
2020/12/07 11:56:51;;;;;;;90.17;46.47;;;3.70;99.90;;;;;;5015468;28;20204;-79
2020/12/07 11:59:17;;;;;;;93.47;45.67;;;3.70;99.90;;;;;;5034274;28;20174;-80
2020/12/07 12:01:42;;;;;;;88.67;46.87;;;3.80;99.90;;;;;;5041709;28;20172;-80
2020/12/07 12:04:08;;;;;;;87.63;47.13;;;3.80;99.90;;;;;;5052946;28;20275;-79
2020/12/07 12:06:36;;;;;;;82.33;44.07;;;3.90;99.90;;;;;;5053141;28;20160;-80
2020/12/07 12:09:04;;;;;;;89.43;46.40;;;3.70;99.90;;;;;;5052970;28;20632;-80
2020/12/07 12:11:34;;;;;;;86.70;45.87;;;3.90;99.90;;;;;;5053013;28;20214;-79
2020/12/07 12:14:01;;;;;;;91.27;45.60;;;4.00;99.90;;;;;;5035033;28;20291;-79
2020/12/07 12:16:27;;;;;;;92.00;47.27;;;4.10;99.90;;;;;;5052991;28;20244;-80
2020/12/07 12:18:57;;;;;;;96.73;47.00;;;4.10;99.90;;;;;;5053074;28;20624;-79
2020/12/07 12:21:26;;;;;;;94.33;47.97;;;4.20;99.90;;;;;;5052718;28;20282;-79
2020/12/07 12:23:51;;;;;;;96.73;49.10;;;4.10;99.90;;;;;;5052923;28;20196;-79
2020/12/07 12:26:19;;;;;;;98.33;50.43;;;4.10;99.90;;;;;;5035077;28;20171;-80
2020/12/07 12:28:45;;;;;;;103.37;52.20;;;4.10;99.90;;;;;;5055519;28;20181;-80
2020/12/07 12:31:12;;;;;;;97.20;49.60;;;4.10;99.90;;;;;;5056216;28;20222;-80
2020/12/07 12:33:38;;;;;;;108.20;49.57;;;4.00;99.90;;;;;;5028536;28;20260;-79
2020/12/07 12:36:05;;;;;;;97.73;49.70;;;4.20;99.90;;;;;;5056537;28;20523;-80
2020/12/07 12:38:31;;;;;;;96.63;49.03;;;4.00;99.90;;;;;;5056487;28;20531;-80
2020/12/07 12:40:57;;;;;;;103.27;48.93;;;4.20;99.90;;;;;;5057256;28;20638;-79
2020/12/07 12:43:23;;;;;;;100.37;49.10;;;4.00;99.90;;;;;;5056379;28;20196;-79
2020/12/07 12:45:49;;;;;;;99.37;50.03;;;4.00;99.90;;;;;;5056371;28;20160;-79
2020/12/07 12:48:21;;;;;;;102.33;51.20;;;4.10;99.90;;;;;;5056806;28;20199;-79
2020/12/07 12:50:46;;;;;;;107.03;51.23;;;4.20;99.90;;;;;;5056307;28;20165;-80
2020/12/07 12:53:12;;;;;;;106.43;52.43;;;4.40;99.90;;;;;;5056254;28;20169;-79
2020/12/07 12:55:37;;;;;;;114.10;53.30;;;4.30;99.90;;;;;;5056853;28;20718;-79
2020/12/07 12:58:03;;;;;;;108.07;52.07;;;4.10;99.90;;;;;;5038302;28;20169;-80
2020/12/07 13:00:31;;;;;;;108.73;52.23;;;4.10;99.90;;;;;;5056093;28;20245;-78
2020/12/07 13:03:03;;;;;;;120.33;54.43;;;4.10;99.90;;;;;;5055728;28;20258;-79
2020/12/07 13:05:28;;;;;;;110.73;53.23;;;4.30;99.90;;;;;;5056016;28;20183;-79
2020/12/07 13:07:54;;;;;;;110.20;52.37;;;4.10;99.90;;;;;;5056022;28;20327;-78